sensor_id;sensor_type;location;lat;lon;timestamp;P1;durP1;ratioP1;P2;durP2;ratioP2
3068;SDS011;1545;51.728;8.796;2023-04-07T00:00:51;25.93;;;15.27;;
3068;SDS011;1545;51.728;8.796;2023-04-07T00:03:17;26.37;;;15.53;;
3068;SDS011;1545;51.728;8.796;2023-04-07T00:05:42;25.80;;;15.93;;
3068;SDS011;1545;51.728;8.796;2023-04-07T00:08:08;30.17;;;15.17;;
3068;SDS011;1545;51.728;8.796;2023-04-07T00:10:33;25.70;;;15.37;;
3068;SDS011;1545;51.728;8.796;2023-04-07T00:12:59;24.93;;;15.10;;
3068;SDS011;1545;51.728;8.796;2023-04-07T00:15:24;27.50;;;15.70;;
3068;SDS011;1545;51.728;8.796;2023-04-07T00:17:50;27.37;;;15.87;;
3068;SDS011;1545;51.728;8.796;2023-04-07T00:20:16;27.47;;;16.03;;
3068;SDS011;1545;51.728;8.796;2023-04-07T00:22:41;27.70;;;16.80;;
3068;SDS011;1545;51.728;8.796;2023-04-07T00:25:07;25.67;;;16.17;;
3068;SDS011;1545;51.728;8.796;2023-04-07T00:27:32;26.97;;;16.07;;
3068;SDS011;1545;51.728;8.796;2023-04-07T00:29:58;27.23;;;16.20;;
3068;SDS011;1545;51.728;8.796;2023-04-07T00:32:23;30.50;;;17.10;;
3068;SDS011;1545;51.728;8.796;2023-04-07T00:34:49;24.50;;;16.13;;
3068;SDS011;1545;51.728;8.796;2023-04-07T00:37:14;25.63;;;16.07;;
3068;SDS011;1545;51.728;8.796;2023-04-07T00:39:40;28.33;;;16.20;;
3068;SDS011;1545;51.728;8.796;2023-04-07T00:42:05;25.17;;;15.73;;
3068;SDS011;1545;51.728;8.796;2023-04-07T00:44:32;27.00;;;16.10;;
3068;SDS011;1545;51.728;8.796;2023-04-07T00:46:58;28.17;;;15.67;;
3068;SDS011;1545;51.728;8.796;2023-04-07T00:49:24;27.13;;;16.63;;
3068;SDS011;1545;51.728;8.796;2023-04-07T00:51:52;26.60;;;15.50;;
3068;SDS011;1545;51.728;8.796;2023-04-07T00:54:18;26.57;;;16.57;;
3068;SDS011;1545;51.728;8.796;2023-04-07T00:56:44;24.13;;;15.60;;
3068;SDS011;1545;51.728;8.796;2023-04-07T00:59:10;26.67;;;15.87;;
3068;SDS011;1545;51.728;8.796;2023-04-07T01:01:39;27.83;;;16.83;;
3068;SDS011;1545;51.728;8.796;2023-04-07T01:04:12;30.03;;;17.07;;
3068;SDS011;1545;51.728;8.796;2023-04-07T01:06:58;27.17;;;16.77;;
3068;SDS011;1545;51.728;8.796;2023-04-07T01:09:52;28.43;;;16.83;;
3068;SDS011;1545;51.728;8.796;2023-04-07T01:12:23;28.30;;;17.40;;
3068;SDS011;1545;51.728;8.796;2023-04-07T01:15:11;28.50;;;17.60;;
3068;SDS011;1545;51.728;8.796;2023-04-07T01:20:32;27.97;;;16.33;;
3068;SDS011;1545;51.728;8.796;2023-04-07T01:23:01;28.07;;;17.27;;
3068;SDS011;1545;51.728;8.796;2023-04-07T01:31:05;30.07;;;17.90;;
3068;SDS011;1545;51.728;8.796;2023-04-07T01:33:33;30.23;;;16.73;;
3068;SDS011;1545;51.728;8.796;2023-04-07T01:36:00;28.73;;;17.20;;
3068;SDS011;1545;51.728;8.796;2023-04-07T01:38:27;26.37;;;16.43;;
3068;SDS011;1545;51.728;8.796;2023-04-07T01:40:54;26.17;;;16.07;;
3068;SDS011;1545;51.728;8.796;2023-04-07T01:43:21;26.73;;;16.37;;
3068;SDS011;1545;51.728;8.796;2023-04-07T01:45:48;27.03;;;16.87;;
3068;SDS011;1545;51.728;8.796;2023-04-07T01:48:15;29.37;;;16.43;;
3068;SDS011;1545;51.728;8.796;2023-04-07T01:50:42;30.77;;;16.57;;
3068;SDS011;1545;51.728;8.796;2023-04-07T01:53:09;27.60;;;16.37;;
3068;SDS011;1545;51.728;8.796;2023-04-07T01:55:35;31.13;;;16.27;;
3068;SDS011;1545;51.728;8.796;2023-04-07T01:58:05;26.33;;;16.30;;
3068;SDS011;1545;51.728;8.796;2023-04-07T02:00:31;28.60;;;17.40;;
3068;SDS011;1545;51.728;8.796;2023-04-07T02:02:58;27.33;;;16.47;;
3068;SDS011;1545;51.728;8.796;2023-04-07T02:05:31;32.57;;;19.00;;
3068;SDS011;1545;51.728;8.796;2023-04-07T02:08:03;31.00;;;17.93;;
3068;SDS011;1545;51.728;8.796;2023-04-07T02:10:30;31.40;;;19.13;;
3068;SDS011;1545;51.728;8.796;2023-04-07T02:13:00;29.87;;;18.23;;
3068;SDS011;1545;51.728;8.796;2023-04-07T02:15:29;32.47;;;19.40;;
3068;SDS011;1545;51.728;8.796;2023-04-07T02:17:57;31.97;;;18.67;;
3068;SDS011;1545;51.728;8.796;2023-04-07T02:20:24;29.97;;;19.10;;
3068;SDS011;1545;51.728;8.796;2023-04-07T02:22:50;33.27;;;20.00;;
3068;SDS011;1545;51.728;8.796;2023-04-07T02:25:24;32.33;;;19.60;;
3068;SDS011;1545;51.728;8.796;2023-04-07T02:27:51;33.17;;;20.50;;
3068;SDS011;1545;51.728;8.796;2023-04-07T02:30:18;34.27;;;19.77;;
3068;SDS011;1545;51.728;8.796;2023-04-07T02:32:44;36.83;;;21.03;;
3068;SDS011;1545;51.728;8.796;2023-04-07T02:35:09;37.83;;;21.50;;
3068;SDS011;1545;51.728;8.796;2023-04-07T02:37:36;40.90;;;21.13;;
3068;SDS011;1545;51.728;8.796;2023-04-07T02:40:02;38.50;;;21.63;;
3068;SDS011;1545;51.728;8.796;2023-04-07T02:42:28;41.17;;;21.93;;
3068;SDS011;1545;51.728;8.796;2023-04-07T02:44:54;38.50;;;23.07;;
3068;SDS011;1545;51.728;8.796;2023-04-07T02:47:20;38.87;;;22.83;;
3068;SDS011;1545;51.728;8.796;2023-04-07T02:49:45;37.40;;;21.20;;
3068;SDS011;1545;51.728;8.796;2023-04-07T02:52:11;38.27;;;21.57;;
3068;SDS011;1545;51.728;8.796;2023-04-07T02:54:36;41.17;;;23.83;;
3068;SDS011;1545;51.728;8.796;2023-04-07T02:57:02;40.33;;;22.90;;
3068;SDS011;1545;51.728;8.796;2023-04-07T02:59:27;40.00;;;22.30;;
3068;SDS011;1545;51.728;8.796;2023-04-07T03:01:53;36.37;;;21.67;;
3068;SDS011;1545;51.728;8.796;2023-04-07T03:04:18;38.20;;;22.30;;
3068;SDS011;1545;51.728;8.796;2023-04-07T03:06:44;36.17;;;21.60;;
3068;SDS011;1545;51.728;8.796;2023-04-07T03:09:10;38.37;;;22.93;;
3068;SDS011;1545;51.728;8.796;2023-04-07T03:11:35;40.73;;;22.67;;
3068;SDS011;1545;51.728;8.796;2023-04-07T03:14:01;38.57;;;22.43;;
3068;SDS011;1545;51.728;8.796;2023-04-07T03:16:27;35.03;;;21.03;;
3068;SDS011;1545;51.728;8.796;2023-04-07T03:18:52;34.93;;;21.33;;
3068;SDS011;1545;51.728;8.796;2023-04-07T03:21:18;37.73;;;21.90;;
3068;SDS011;1545;51.728;8.796;2023-04-07T03:23:43;38.70;;;20.63;;
3068;SDS011;1545;51.728;8.796;2023-04-07T03:26:09;37.40;;;20.87;;
3068;SDS011;1545;51.728;8.796;2023-04-07T03:28:35;35.80;;;20.37;;
3068;SDS011;1545;51.728;8.796;2023-04-07T03:31:00;35.20;;;20.87;;
3068;SDS011;1545;51.728;8.796;2023-04-07T03:33:26;35.47;;;20.53;;
3068;SDS011;1545;51.728;8.796;2023-04-07T03:35:52;36.73;;;20.83;;
3068;SDS011;1545;51.728;8.796;2023-04-07T03:38:17;38.50;;;22.27;;
3068;SDS011;1545;51.728;8.796;2023-04-07T03:40:42;39.47;;;22.13;;
3068;SDS011;1545;51.728;8.796;2023-04-07T03:43:08;40.83;;;21.67;;
3068;SDS011;1545;51.728;8.796;2023-04-07T03:45:37;38.33;;;22.73;;
3068;SDS011;1545;51.728;8.796;2023-04-07T03:48:03;40.20;;;21.80;;
3068;SDS011;1545;51.728;8.796;2023-04-07T03:50:29;37.73;;;21.53;;
3068;SDS011;1545;51.728;8.796;2023-04-07T03:52:54;37.03;;;22.20;;
3068;SDS011;1545;51.728;8.796;2023-04-07T03:55:21;40.10;;;22.40;;
3068;SDS011;1545;51.728;8.796;2023-04-07T03:57:46;40.57;;;23.10;;
3068;SDS011;1545;51.728;8.796;2023-04-07T04:00:12;43.03;;;22.93;;
3068;SDS011;1545;51.728;8.796;2023-04-07T04:02:38;43.07;;;23.47;;
3068;SDS011;1545;51.728;8.796;2023-04-07T04:05:04;38.70;;;22.57;;
3068;SDS011;1545;51.728;8.796;2023-04-07T04:07:30;41.57;;;23.77;;
3068;SDS011;1545;51.728;8.796;2023-04-07T04:09:57;42.90;;;22.80;;
3068;SDS011;1545;51.728;8.796;2023-04-07T04:12:23;41.30;;;23.60;;
3068;SDS011;1545;51.728;8.796;2023-04-07T04:14:48;43.03;;;24.20;;
3068;SDS011;1545;51.728;8.796;2023-04-07T04:17:13;39.10;;;22.63;;
3068;SDS011;1545;51.728;8.796;2023-04-07T04:19:39;43.83;;;24.37;;
3068;SDS011;1545;51.728;8.796;2023-04-07T04:22:04;44.70;;;23.60;;
3068;SDS011;1545;51.728;8.796;2023-04-07T04:24:30;44.30;;;23.30;;
3068;SDS011;1545;51.728;8.796;2023-04-07T04:26:55;43.83;;;23.83;;
3068;SDS011;1545;51.728;8.796;2023-04-07T04:29:21;45.37;;;24.70;;
3068;SDS011;1545;51.728;8.796;2023-04-07T04:31:47;43.10;;;23.73;;
3068;SDS011;1545;51.728;8.796;2023-04-07T04:34:12;47.13;;;25.07;;
3068;SDS011;1545;51.728;8.796;2023-04-07T04:36:38;43.37;;;24.20;;
3068;SDS011;1545;51.728;8.796;2023-04-07T04:39:05;49.83;;;25.93;;
3068;SDS011;1545;51.728;8.796;2023-04-07T04:41:30;42.77;;;23.90;;
3068;SDS011;1545;51.728;8.796;2023-04-07T04:43:56;44.60;;;24.67;;
3068;SDS011;1545;51.728;8.796;2023-04-07T04:46:21;43.17;;;24.40;;
3068;SDS011;1545;51.728;8.796;2023-04-07T04:48:47;43.63;;;24.07;;
3068;SDS011;1545;51.728;8.796;2023-04-07T04:51:12;40.63;;;22.90;;
3068;SDS011;1545;51.728;8.796;2023-04-07T04:53:38;43.07;;;25.13;;
3068;SDS011;1545;51.728;8.796;2023-04-07T04:56:03;46.80;;;24.50;;
3068;SDS011;1545;51.728;8.796;2023-04-07T04:58:29;44.30;;;24.87;;
3068;SDS011;1545;51.728;8.796;2023-04-07T05:00:55;44.07;;;23.60;;
3068;SDS011;1545;51.728;8.796;2023-04-07T05:03:22;45.60;;;25.10;;
3068;SDS011;1545;51.728;8.796;2023-04-07T05:05:49;43.67;;;25.10;;
3068;SDS011;1545;51.728;8.796;2023-04-07T05:08:14;42.47;;;24.73;;
3068;SDS011;1545;51.728;8.796;2023-04-07T05:10:40;42.43;;;25.13;;
3068;SDS011;1545;51.728;8.796;2023-04-07T05:13:06;43.47;;;24.07;;
3068;SDS011;1545;51.728;8.796;2023-04-07T05:15:31;45.43;;;24.40;;
3068;SDS011;1545;51.728;8.796;2023-04-07T05:17:57;48.77;;;24.87;;
3068;SDS011;1545;51.728;8.796;2023-04-07T05:20:22;43.43;;;25.27;;
3068;SDS011;1545;51.728;8.796;2023-04-07T05:22:47;46.07;;;23.17;;
3068;SDS011;1545;51.728;8.796;2023-04-07T05:25:13;41.30;;;22.67;;
3068;SDS011;1545;51.728;8.796;2023-04-07T05:27:38;39.30;;;21.83;;
3068;SDS011;1545;51.728;8.796;2023-04-07T05:30:05;41.47;;;22.87;;
3068;SDS011;1545;51.728;8.796;2023-04-07T05:32:31;38.10;;;21.50;;
3068;SDS011;1545;51.728;8.796;2023-04-07T05:34:56;43.90;;;22.27;;
3068;SDS011;1545;51.728;8.796;2023-04-07T05:37:22;37.13;;;21.43;;
3068;SDS011;1545;51.728;8.796;2023-04-07T05:39:47;34.80;;;21.47;;
3068;SDS011;1545;51.728;8.796;2023-04-07T05:42:12;39.83;;;22.53;;
3068;SDS011;1545;51.728;8.796;2023-04-07T05:44:38;37.93;;;21.80;;
3068;SDS011;1545;51.728;8.796;2023-04-07T05:47:04;38.50;;;21.33;;
3068;SDS011;1545;51.728;8.796;2023-04-07T05:49:32;41.03;;;23.30;;
3068;SDS011;1545;51.728;8.796;2023-04-07T05:51:58;37.17;;;21.87;;
3068;SDS011;1545;51.728;8.796;2023-04-07T05:54:24;38.83;;;21.97;;
3068;SDS011;1545;51.728;8.796;2023-04-07T05:56:50;35.93;;;21.20;;
3068;SDS011;1545;51.728;8.796;2023-04-07T05:59:15;35.63;;;21.37;;
3068;SDS011;1545;51.728;8.796;2023-04-07T06:01:41;37.50;;;21.03;;
3068;SDS011;1545;51.728;8.796;2023-04-07T06:04:07;44.33;;;21.53;;
3068;SDS011;1545;51.728;8.796;2023-04-07T06:06:32;35.00;;;20.07;;
3068;SDS011;1545;51.728;8.796;2023-04-07T06:08:58;36.87;;;20.47;;
3068;SDS011;1545;51.728;8.796;2023-04-07T06:11:24;30.83;;;19.30;;
3068;SDS011;1545;51.728;8.796;2023-04-07T06:13:51;31.70;;;19.37;;
3068;SDS011;1545;51.728;8.796;2023-04-07T06:16:16;32.00;;;19.10;;
3068;SDS011;1545;51.728;8.796;2023-04-07T06:18:42;29.57;;;18.40;;
3068;SDS011;1545;51.728;8.796;2023-04-07T06:21:07;29.90;;;17.77;;
3068;SDS011;1545;51.728;8.796;2023-04-07T06:23:33;28.10;;;15.97;;
3068;SDS011;1545;51.728;8.796;2023-04-07T06:25:58;27.33;;;16.50;;
3068;SDS011;1545;51.728;8.796;2023-04-07T06:28:24;28.53;;;16.33;;
3068;SDS011;1545;51.728;8.796;2023-04-07T06:30:50;26.93;;;15.70;;
3068;SDS011;1545;51.728;8.796;2023-04-07T06:33:15;25.00;;;15.53;;
3068;SDS011;1545;51.728;8.796;2023-04-07T06:35:41;23.80;;;15.00;;
3068;SDS011;1545;51.728;8.796;2023-04-07T06:38:06;23.90;;;14.50;;
3068;SDS011;1545;51.728;8.796;2023-04-07T06:40:32;22.73;;;13.50;;
3068;SDS011;1545;51.728;8.796;2023-04-07T06:42:57;25.13;;;12.90;;
3068;SDS011;1545;51.728;8.796;2023-04-07T06:45:23;20.20;;;12.80;;
3068;SDS011;1545;51.728;8.796;2023-04-07T06:47:48;18.33;;;12.50;;
3068;SDS011;1545;51.728;8.796;2023-04-07T06:50:14;20.03;;;12.90;;
3068;SDS011;1545;51.728;8.796;2023-04-07T06:52:41;17.27;;;11.30;;
3068;SDS011;1545;51.728;8.796;2023-04-07T06:55:07;16.77;;;11.53;;
3068;SDS011;1545;51.728;8.796;2023-04-07T06:57:33;19.57;;;11.17;;
3068;SDS011;1545;51.728;8.796;2023-04-07T06:59:58;19.20;;;11.23;;
3068;SDS011;1545;51.728;8.796;2023-04-07T07:02:23;16.83;;;11.00;;
3068;SDS011;1545;51.728;8.796;2023-04-07T07:04:49;16.23;;;10.70;;
3068;SDS011;1545;51.728;8.796;2023-04-07T07:07:15;18.07;;;11.47;;
3068;SDS011;1545;51.728;8.796;2023-04-07T07:09:40;16.17;;;10.80;;
3068;SDS011;1545;51.728;8.796;2023-04-07T07:12:06;19.03;;;11.07;;
3068;SDS011;1545;51.728;8.796;2023-04-07T07:14:31;15.90;;;10.67;;
3068;SDS011;1545;51.728;8.796;2023-04-07T07:16:57;15.73;;;10.57;;
3068;SDS011;1545;51.728;8.796;2023-04-07T07:19:22;18.67;;;11.00;;
3068;SDS011;1545;51.728;8.796;2023-04-07T07:21:47;15.77;;;11.00;;
3068;SDS011;1545;51.728;8.796;2023-04-07T07:24:13;15.93;;;10.63;;
3068;SDS011;1545;51.728;8.796;2023-04-07T07:26:39;17.13;;;10.93;;
3068;SDS011;1545;51.728;8.796;2023-04-07T07:29:05;19.17;;;11.20;;
3068;SDS011;1545;51.728;8.796;2023-04-07T07:31:34;21.30;;;11.50;;
3068;SDS011;1545;51.728;8.796;2023-04-07T07:33:59;18.07;;;12.03;;
3068;SDS011;1545;51.728;8.796;2023-04-07T07:36:25;17.37;;;10.50;;
3068;SDS011;1545;51.728;8.796;2023-04-07T07:38:50;20.07;;;11.50;;
3068;SDS011;1545;51.728;8.796;2023-04-07T07:41:16;16.83;;;10.73;;
3068;SDS011;1545;51.728;8.796;2023-04-07T07:43:41;16.10;;;10.47;;
3068;SDS011;1545;51.728;8.796;2023-04-07T07:46:07;17.40;;;11.03;;
3068;SDS011;1545;51.728;8.796;2023-04-07T07:48:32;13.97;;;9.77;;
3068;SDS011;1545;51.728;8.796;2023-04-07T07:50:58;16.20;;;10.13;;
3068;SDS011;1545;51.728;8.796;2023-04-07T07:53:23;15.93;;;9.50;;
3068;SDS011;1545;51.728;8.796;2023-04-07T07:55:49;16.67;;;10.17;;
3068;SDS011;1545;51.728;8.796;2023-04-07T07:58:15;13.37;;;9.03;;
3068;SDS011;1545;51.728;8.796;2023-04-07T08:00:40;14.23;;;9.00;;
3068;SDS011;1545;51.728;8.796;2023-04-07T08:03:06;13.40;;;8.60;;
3068;SDS011;1545;51.728;8.796;2023-04-07T08:05:31;12.83;;;9.07;;
3068;SDS011;1545;51.728;8.796;2023-04-07T08:07:57;14.43;;;9.07;;
3068;SDS011;1545;51.728;8.796;2023-04-07T08:10:22;11.47;;;7.77;;
3068;SDS011;1545;51.728;8.796;2023-04-07T08:12:49;12.53;;;8.20;;
3068;SDS011;1545;51.728;8.796;2023-04-07T08:15:17;12.40;;;8.33;;
3068;SDS011;1545;51.728;8.796;2023-04-07T08:17:43;15.83;;;8.73;;
3068;SDS011;1545;51.728;8.796;2023-04-07T08:20:09;10.73;;;7.40;;
3068;SDS011;1545;51.728;8.796;2023-04-07T08:22:35;11.10;;;7.60;;
3068;SDS011;1545;51.728;8.796;2023-04-07T08:25:01;12.60;;;7.73;;
3068;SDS011;1545;51.728;8.796;2023-04-07T08:27:27;11.33;;;7.80;;
3068;SDS011;1545;51.728;8.796;2023-04-07T08:30:00;13.20;;;7.90;;
3068;SDS011;1545;51.728;8.796;2023-04-07T08:32:36;12.47;;;8.20;;
3068;SDS011;1545;51.728;8.796;2023-04-07T08:35:03;13.40;;;8.40;;
3068;SDS011;1545;51.728;8.796;2023-04-07T08:37:29;10.57;;;7.70;;
3068;SDS011;1545;51.728;8.796;2023-04-07T08:39:55;13.67;;;8.57;;
3068;SDS011;1545;51.728;8.796;2023-04-07T08:42:21;13.07;;;8.63;;
3068;SDS011;1545;51.728;8.796;2023-04-07T08:44:51;13.43;;;8.63;;
3068;SDS011;1545;51.728;8.796;2023-04-07T08:47:19;12.47;;;9.07;;
3068;SDS011;1545;51.728;8.796;2023-04-07T08:49:47;13.60;;;9.10;;
3068;SDS011;1545;51.728;8.796;2023-04-07T08:52:17;13.17;;;9.07;;
3068;SDS011;1545;51.728;8.796;2023-04-07T08:54:46;11.63;;;8.60;;
3068;SDS011;1545;51.728;8.796;2023-04-07T08:57:13;12.70;;;9.00;;
3068;SDS011;1545;51.728;8.796;2023-04-07T08:59:40;13.87;;;9.37;;
3068;SDS011;1545;51.728;8.796;2023-04-07T09:02:09;12.70;;;9.13;;
3068;SDS011;1545;51.728;8.796;2023-04-07T09:04:34;14.90;;;8.73;;
3068;SDS011;1545;51.728;8.796;2023-04-07T09:07:00;13.67;;;8.97;;
3068;SDS011;1545;51.728;8.796;2023-04-07T09:09:26;12.30;;;8.17;;
3068;SDS011;1545;51.728;8.796;2023-04-07T09:11:53;10.87;;;7.80;;
3068;SDS011;1545;51.728;8.796;2023-04-07T09:14:19;14.23;;;7.87;;
3068;SDS011;1545;51.728;8.796;2023-04-07T09:16:45;12.17;;;7.30;;
3068;SDS011;1545;51.728;8.796;2023-04-07T09:19:11;10.80;;;7.43;;
3068;SDS011;1545;51.728;8.796;2023-04-07T09:21:46;11.50;;;7.57;;
3068;SDS011;1545;51.728;8.796;2023-04-07T09:24:24;10.43;;;7.50;;
3068;SDS011;1545;51.728;8.796;2023-04-07T09:26:58;10.90;;;7.33;;
3068;SDS011;1545;51.728;8.796;2023-04-07T09:29:34;10.67;;;7.33;;
3068;SDS011;1545;51.728;8.796;2023-04-07T09:31:59;10.87;;;7.07;;
3068;SDS011;1545;51.728;8.796;2023-04-07T09:36:57;10.23;;;7.00;;
3068;SDS011;1545;51.728;8.796;2023-04-07T09:39:23;9.13;;;6.17;;
3068;SDS011;1545;51.728;8.796;2023-04-07T09:41:49;7.80;;;5.83;;
3068;SDS011;1545;51.728;8.796;2023-04-07T09:44:16;10.67;;;7.23;;
3068;SDS011;1545;51.728;8.796;2023-04-07T09:46:52;11.50;;;6.73;;
3068;SDS011;1545;51.728;8.796;2023-04-07T09:49:20;9.17;;;6.67;;
3068;SDS011;1545;51.728;8.796;2023-04-07T09:51:56;10.37;;;7.10;;
3068;SDS011;1545;51.728;8.796;2023-04-07T09:54:34;10.40;;;6.80;;
3068;SDS011;1545;51.728;8.796;2023-04-07T09:57:05;8.00;;;6.10;;
3068;SDS011;1545;51.728;8.796;2023-04-07T09:59:36;10.47;;;7.30;;
3068;SDS011;1545;51.728;8.796;2023-04-07T10:02:04;9.17;;;6.40;;
3068;SDS011;1545;51.728;8.796;2023-04-07T10:04:30;10.37;;;6.73;;
3068;SDS011;1545;51.728;8.796;2023-04-07T10:06:56;8.80;;;6.57;;
3068;SDS011;1545;51.728;8.796;2023-04-07T10:09:23;11.17;;;7.50;;
3068;SDS011;1545;51.728;8.796;2023-04-07T10:11:50;9.53;;;6.43;;
3068;SDS011;1545;51.728;8.796;2023-04-07T10:14:17;9.60;;;6.73;;
3068;SDS011;1545;51.728;8.796;2023-04-07T10:16:45;8.83;;;6.53;;
3068;SDS011;1545;51.728;8.796;2023-04-07T10:19:15;8.07;;;5.90;;
3068;SDS011;1545;51.728;8.796;2023-04-07T10:21:42;7.30;;;5.43;;
3068;SDS011;1545;51.728;8.796;2023-04-07T10:24:15;6.53;;;4.97;;
3068;SDS011;1545;51.728;8.796;2023-04-07T10:26:56;6.47;;;4.90;;
3068;SDS011;1545;51.728;8.796;2023-04-07T10:29:28;7.00;;;5.27;;
3068;SDS011;1545;51.728;8.796;2023-04-07T10:31:58;8.13;;;5.37;;
3068;SDS011;1545;51.728;8.796;2023-04-07T10:37:17;7.03;;;5.20;;
3068;SDS011;1545;51.728;8.796;2023-04-07T10:39:46;6.37;;;4.90;;
3068;SDS011;1545;51.728;8.796;2023-04-07T10:45:04;7.37;;;5.40;;
3068;SDS011;1545;51.728;8.796;2023-04-07T10:47:31;7.57;;;5.40;;
3068;SDS011;1545;51.728;8.796;2023-04-07T10:50:16;6.70;;;5.13;;
3068;SDS011;1545;51.728;8.796;2023-04-07T10:52:47;7.93;;;5.67;;
3068;SDS011;1545;51.728;8.796;2023-04-07T10:55:30;7.67;;;5.70;;
3068;SDS011;1545;51.728;8.796;2023-04-07T11:03:25;7.60;;;5.70;;
3068;SDS011;1545;51.728;8.796;2023-04-07T11:05:52;10.10;;;6.30;;
3068;SDS011;1545;51.728;8.796;2023-04-07T11:11:02;8.57;;;6.50;;
3068;SDS011;1545;51.728;8.796;2023-04-07T11:13:39;9.40;;;6.10;;
3068;SDS011;1545;51.728;8.796;2023-04-07T11:16:08;9.40;;;6.63;;
3068;SDS011;1545;51.728;8.796;2023-04-07T11:18:35;8.90;;;6.07;;
3068;SDS011;1545;51.728;8.796;2023-04-07T11:21:01;8.70;;;6.40;;
3068;SDS011;1545;51.728;8.796;2023-04-07T11:23:29;7.50;;;5.93;;
3068;SDS011;1545;51.728;8.796;2023-04-07T11:26:01;8.67;;;6.07;;
3068;SDS011;1545;51.728;8.796;2023-04-07T11:28:28;10.40;;;6.00;;
3068;SDS011;1545;51.728;8.796;2023-04-07T11:30:54;8.13;;;6.03;;
3068;SDS011;1545;51.728;8.796;2023-04-07T11:33:21;8.90;;;6.30;;
3068;SDS011;1545;51.728;8.796;2023-04-07T11:36:01;8.07;;;6.30;;
3068;SDS011;1545;51.728;8.796;2023-04-07T11:38:36;8.50;;;6.23;;
3068;SDS011;1545;51.728;8.796;2023-04-07T11:41:10;11.13;;;8.00;;
3068;SDS011;1545;51.728;8.796;2023-04-07T11:43:36;9.73;;;7.50;;
3068;SDS011;1545;51.728;8.796;2023-04-07T11:46:09;9.57;;;7.20;;
3068;SDS011;1545;51.728;8.796;2023-04-07T11:48:37;11.40;;;8.57;;
3068;SDS011;1545;51.728;8.796;2023-04-07T11:51:04;10.30;;;7.87;;
3068;SDS011;1545;51.728;8.796;2023-04-07T11:53:31;11.23;;;8.00;;
3068;SDS011;1545;51.728;8.796;2023-04-07T11:56:05;20.57;;;13.60;;
3068;SDS011;1545;51.728;8.796;2023-04-07T11:58:34;15.90;;;10.13;;
3068;SDS011;1545;51.728;8.796;2023-04-07T12:01:04;12.57;;;9.10;;
3068;SDS011;1545;51.728;8.796;2023-04-07T12:03:33;13.47;;;9.00;;
3068;SDS011;1545;51.728;8.796;2023-04-07T12:06:01;20.47;;;9.00;;
3068;SDS011;1545;51.728;8.796;2023-04-07T12:08:35;12.73;;;8.50;;
3068;SDS011;1545;51.728;8.796;2023-04-07T12:11:03;12.73;;;9.13;;
3068;SDS011;1545;51.728;8.796;2023-04-07T12:13:29;13.83;;;9.50;;
3068;SDS011;1545;51.728;8.796;2023-04-07T12:15:55;13.30;;;9.50;;
3068;SDS011;1545;51.728;8.796;2023-04-07T12:18:22;13.43;;;9.43;;
3068;SDS011;1545;51.728;8.796;2023-04-07T12:20:49;12.17;;;9.10;;
3068;SDS011;1545;51.728;8.796;2023-04-07T12:23:14;13.40;;;10.00;;
3068;SDS011;1545;51.728;8.796;2023-04-07T12:25:40;13.90;;;9.50;;
3068;SDS011;1545;51.728;8.796;2023-04-07T12:28:06;21.07;;;14.47;;
3068;SDS011;1545;51.728;8.796;2023-04-07T12:30:31;14.27;;;9.87;;
3068;SDS011;1545;51.728;8.796;2023-04-07T12:32:57;14.50;;;10.37;;
3068;SDS011;1545;51.728;8.796;2023-04-07T12:35:22;14.87;;;10.37;;
3068;SDS011;1545;51.728;8.796;2023-04-07T12:37:48;15.00;;;10.40;;
3068;SDS011;1545;51.728;8.796;2023-04-07T12:40:15;14.03;;;10.00;;
3068;SDS011;1545;51.728;8.796;2023-04-07T12:42:41;14.50;;;10.70;;
3068;SDS011;1545;51.728;8.796;2023-04-07T12:45:07;14.60;;;10.07;;
3068;SDS011;1545;51.728;8.796;2023-04-07T12:47:32;13.83;;;10.97;;
3068;SDS011;1545;51.728;8.796;2023-04-07T12:49:58;17.20;;;11.47;;
3068;SDS011;1545;51.728;8.796;2023-04-07T12:52:24;17.30;;;11.77;;
3068;SDS011;1545;51.728;8.796;2023-04-07T12:54:50;15.47;;;11.37;;
3068;SDS011;1545;51.728;8.796;2023-04-07T12:57:16;17.00;;;11.53;;
3068;SDS011;1545;51.728;8.796;2023-04-07T12:59:41;16.60;;;12.30;;
3068;SDS011;1545;51.728;8.796;2023-04-07T13:02:07;19.50;;;12.60;;
3068;SDS011;1545;51.728;8.796;2023-04-07T13:04:33;19.20;;;13.50;;
3068;SDS011;1545;51.728;8.796;2023-04-07T13:06:59;24.40;;;13.73;;
3068;SDS011;1545;51.728;8.796;2023-04-07T13:09:26;18.03;;;13.10;;
3068;SDS011;1545;51.728;8.796;2023-04-07T13:11:52;19.53;;;13.43;;
3068;SDS011;1545;51.728;8.796;2023-04-07T13:14:17;19.10;;;13.53;;
3068;SDS011;1545;51.728;8.796;2023-04-07T13:16:43;18.77;;;13.93;;
3068;SDS011;1545;51.728;8.796;2023-04-07T13:19:08;19.30;;;13.83;;
3068;SDS011;1545;51.728;8.796;2023-04-07T13:21:34;21.53;;;15.20;;
3068;SDS011;1545;51.728;8.796;2023-04-07T13:24:00;23.27;;;14.00;;
3068;SDS011;1545;51.728;8.796;2023-04-07T13:26:25;21.33;;;13.67;;
3068;SDS011;1545;51.728;8.796;2023-04-07T13:28:52;18.83;;;13.83;;
3068;SDS011;1545;51.728;8.796;2023-04-07T13:31:17;21.87;;;13.97;;
3068;SDS011;1545;51.728;8.796;2023-04-07T13:33:45;21.17;;;14.47;;
3068;SDS011;1545;51.728;8.796;2023-04-07T13:36:11;24.80;;;16.37;;
3068;SDS011;1545;51.728;8.796;2023-04-07T13:38:36;18.83;;;14.40;;
3068;SDS011;1545;51.728;8.796;2023-04-07T13:41:02;25.93;;;15.60;;
3068;SDS011;1545;51.728;8.796;2023-04-07T13:43:28;23.90;;;15.93;;
3068;SDS011;1545;51.728;8.796;2023-04-07T13:45:53;23.70;;;16.50;;
3068;SDS011;1545;51.728;8.796;2023-04-07T13:48:20;27.00;;;17.43;;
3068;SDS011;1545;51.728;8.796;2023-04-07T13:50:46;24.97;;;17.00;;
3068;SDS011;1545;51.728;8.796;2023-04-07T13:53:12;27.37;;;16.80;;
3068;SDS011;1545;51.728;8.796;2023-04-07T13:55:37;24.27;;;16.97;;
3068;SDS011;1545;51.728;8.796;2023-04-07T13:58:03;26.30;;;17.40;;
3068;SDS011;1545;51.728;8.796;2023-04-07T14:00:28;31.17;;;18.70;;
3068;SDS011;1545;51.728;8.796;2023-04-07T14:02:54;29.23;;;19.10;;
3068;SDS011;1545;51.728;8.796;2023-04-07T14:05:20;34.03;;;18.67;;
3068;SDS011;1545;51.728;8.796;2023-04-07T14:07:46;26.13;;;17.97;;
3068;SDS011;1545;51.728;8.796;2023-04-07T14:10:12;27.93;;;18.43;;
3068;SDS011;1545;51.728;8.796;2023-04-07T14:12:37;25.73;;;17.87;;
3068;SDS011;1545;51.728;8.796;2023-04-07T14:15:03;25.67;;;17.87;;
3068;SDS011;1545;51.728;8.796;2023-04-07T14:17:29;29.03;;;17.40;;
3068;SDS011;1545;51.728;8.796;2023-04-07T14:19:55;24.93;;;16.93;;
3068;SDS011;1545;51.728;8.796;2023-04-07T14:22:20;22.97;;;15.47;;
3068;SDS011;1545;51.728;8.796;2023-04-07T14:24:46;28.03;;;14.87;;
3068;SDS011;1545;51.728;8.796;2023-04-07T14:27:11;21.10;;;14.87;;
3068;SDS011;1545;51.728;8.796;2023-04-07T14:29:38;22.97;;;15.00;;
3068;SDS011;1545;51.728;8.796;2023-04-07T14:32:03;19.13;;;13.27;;
3068;SDS011;1545;51.728;8.796;2023-04-07T14:34:29;21.83;;;14.13;;
3068;SDS011;1545;51.728;8.796;2023-04-07T14:36:55;19.27;;;13.70;;
3068;SDS011;1545;51.728;8.796;2023-04-07T14:39:22;21.63;;;14.87;;
3068;SDS011;1545;51.728;8.796;2023-04-07T14:41:49;21.67;;;14.97;;
3068;SDS011;1545;51.728;8.796;2023-04-07T14:44:15;21.50;;;15.03;;
3068;SDS011;1545;51.728;8.796;2023-04-07T14:46:40;24.10;;;15.50;;
3068;SDS011;1545;51.728;8.796;2023-04-07T14:49:06;25.07;;;15.70;;
3068;SDS011;1545;51.728;8.796;2023-04-07T14:51:32;21.77;;;14.90;;
3068;SDS011;1545;51.728;8.796;2023-04-07T14:53:58;22.63;;;14.77;;
3068;SDS011;1545;51.728;8.796;2023-04-07T14:56:24;18.33;;;12.07;;
3068;SDS011;1545;51.728;8.796;2023-04-07T14:58:49;19.83;;;12.07;;
3068;SDS011;1545;51.728;8.796;2023-04-07T15:01:15;17.17;;;12.03;;
3068;SDS011;1545;51.728;8.796;2023-04-07T15:03:41;17.83;;;11.83;;
3068;SDS011;1545;51.728;8.796;2023-04-07T15:06:08;18.80;;;11.30;;
3068;SDS011;1545;51.728;8.796;2023-04-07T15:08:34;16.40;;;11.73;;
3068;SDS011;1545;51.728;8.796;2023-04-07T15:11:02;16.77;;;11.53;;
3068;SDS011;1545;51.728;8.796;2023-04-07T15:13:31;17.90;;;12.23;;
3068;SDS011;1545;51.728;8.796;2023-04-07T15:16:04;16.43;;;11.33;;